Main page
METAR-TAF:

METAR-TAF

Airports :

Fort Dodge Regional Airport

Fort Dodge, Iowa, United States

latitude: 42-33N, longitude: 094-11W, elevation: 1161 ft

Current weather observation

The report was made 40 minutes ago, at 20:56 UTC
Wind 8 mph from the West/Southwest
Temperature 18°F
Humidity 52%
Pressure 30.71 in. Hg
Visibility: 10 miles
Clear sky

METAR: KFOD 202056Z AUTO 24007KT 10SM CLR M08/M16 A3071 RMK AO2 SLP460 T10831156 56025 FZRANO

Time: 15:36 (21:36 UTC)

Forecast

The report was made 4 hours and 13 minutes ago, at 17:23 UTC
Forecast valid from 20 at 18 UTC to 21 at 18 UTC
Wind 6 mph from the West/Southwest
Visibility: 6 miles
Clear sky
From 21 at 1300 UTC
Wind 12 mph from the South/Southwest
Visibility: 6 miles
Clear sky
From 21 at 1500 UTC
Wind 15 mph from the South/Southwest with gusts up to 24 mph
Visibility: 6 miles
Clear sky

TAF: KFOD 201723Z 2018/2118 25005KT P6SM SKC FM211300 21010KT P6SM SKC WS020/24035KT FM211500 21013G21KT P6SM SKC

Weather observations and forecasts of more than 4000 airports (METAR and TAF reports).

The available stations are represented by yellow and red dots on the map.

Hover mouse over dot to see the name of the station.

Then click to see weather observations and forecasts.

To change the map : click on the green buttons with a black cross to zoom in, on the green button with a dash to zoom out, or on the green arrows for adjacent maps.


METAR-TAF: